sensor_id;sensor_type;location;lat;lon;timestamp;P1;durP1;ratioP1;P2;durP2;ratioP2
32094;SDS011;18608;53.688;10.748;2023-05-13T00:01:30;16.50;;;12.20;;
32094;SDS011;18608;53.688;10.748;2023-05-13T00:04:02;12.33;;;9.50;;
32094;SDS011;18608;53.688;10.748;2023-05-13T00:06:28;18.33;;;9.90;;
32094;SDS011;18608;53.688;10.748;2023-05-13T00:08:54;16.20;;;9.47;;
32094;SDS011;18608;53.688;10.748;2023-05-13T00:11:20;19.83;;;10.50;;
32094;SDS011;18608;53.688;10.748;2023-05-13T00:13:46;18.93;;;11.30;;
32094;SDS011;18608;53.688;10.748;2023-05-13T00:16:12;32.93;;;11.73;;
32094;SDS011;18608;53.688;10.748;2023-05-13T00:18:38;16.83;;;11.50;;
32094;SDS011;18608;53.688;10.748;2023-05-13T00:21:04;18.70;;;12.30;;
32094;SDS011;18608;53.688;10.748;2023-05-13T00:23:30;20.80;;;12.10;;
32094;SDS011;18608;53.688;10.748;2023-05-13T00:25:57;25.47;;;14.93;;
32094;SDS011;18608;53.688;10.748;2023-05-13T00:28:23;18.07;;;12.40;;
32094;SDS011;18608;53.688;10.748;2023-05-13T00:30:49;18.80;;;12.27;;
32094;SDS011;18608;53.688;10.748;2023-05-13T00:33:15;19.03;;;12.53;;
32094;SDS011;18608;53.688;10.748;2023-05-13T00:35:42;15.60;;;12.80;;
32094;SDS011;18608;53.688;10.748;2023-05-13T00:38:08;23.70;;;14.10;;
32094;SDS011;18608;53.688;10.748;2023-05-13T00:40:37;21.00;;;12.43;;
32094;SDS011;18608;53.688;10.748;2023-05-13T00:43:07;28.43;;;14.00;;
32094;SDS011;18608;53.688;10.748;2023-05-13T00:45:35;19.53;;;14.43;;
32094;SDS011;18608;53.688;10.748;2023-05-13T00:48:01;17.73;;;14.03;;
32094;SDS011;18608;53.688;10.748;2023-05-13T00:50:27;26.97;;;14.60;;
32094;SDS011;18608;53.688;10.748;2023-05-13T00:52:54;22.70;;;14.30;;
32094;SDS011;18608;53.688;10.748;2023-05-13T00:55:22;25.23;;;14.90;;
32094;SDS011;18608;53.688;10.748;2023-05-13T00:57:48;22.50;;;15.53;;
32094;SDS011;18608;53.688;10.748;2023-05-13T01:00:14;20.60;;;16.10;;
32094;SDS011;18608;53.688;10.748;2023-05-13T01:03:01;25.37;;;16.73;;
32094;SDS011;18608;53.688;10.748;2023-05-13T01:05:56;28.63;;;16.70;;
32094;SDS011;18608;53.688;10.748;2023-05-13T01:11:03;28.83;;;18.13;;
32094;SDS011;18608;53.688;10.748;2023-05-13T01:13:38;28.37;;;19.07;;
32094;SDS011;18608;53.688;10.748;2023-05-13T01:16:12;28.80;;;18.40;;
32094;SDS011;18608;53.688;10.748;2023-05-13T01:18:41;29.47;;;17.73;;
32094;SDS011;18608;53.688;10.748;2023-05-13T01:21:09;27.90;;;18.27;;
32094;SDS011;18608;53.688;10.748;2023-05-13T01:23:36;26.00;;;18.20;;
32094;SDS011;18608;53.688;10.748;2023-05-13T01:26:02;37.50;;;19.53;;
32094;SDS011;18608;53.688;10.748;2023-05-13T01:28:28;31.93;;;18.47;;
32094;SDS011;18608;53.688;10.748;2023-05-13T01:30:54;26.23;;;17.63;;
32094;SDS011;18608;53.688;10.748;2023-05-13T01:33:21;28.90;;;18.47;;
32094;SDS011;18608;53.688;10.748;2023-05-13T01:35:47;30.20;;;17.33;;
32094;SDS011;18608;53.688;10.748;2023-05-13T01:38:13;31.23;;;18.47;;
32094;SDS011;18608;53.688;10.748;2023-05-13T01:40:40;27.47;;;17.77;;
32094;SDS011;18608;53.688;10.748;2023-05-13T01:43:06;27.30;;;18.70;;
32094;SDS011;18608;53.688;10.748;2023-05-13T01:45:32;25.37;;;18.50;;
32094;SDS011;18608;53.688;10.748;2023-05-13T01:47:58;25.83;;;18.53;;
32094;SDS011;18608;53.688;10.748;2023-05-13T01:50:24;35.70;;;19.27;;
32094;SDS011;18608;53.688;10.748;2023-05-13T01:52:50;31.17;;;20.43;;
32094;SDS011;18608;53.688;10.748;2023-05-13T01:55:16;32.00;;;21.67;;
32094;SDS011;18608;53.688;10.748;2023-05-13T01:57:42;28.47;;;21.27;;
32094;SDS011;18608;53.688;10.748;2023-05-13T02:00:08;38.43;;;20.77;;
32094;SDS011;18608;53.688;10.748;2023-05-13T02:02:35;35.37;;;20.60;;
32094;SDS011;18608;53.688;10.748;2023-05-13T02:05:01;31.93;;;21.57;;
32094;SDS011;18608;53.688;10.748;2023-05-13T02:07:27;34.70;;;22.80;;
32094;SDS011;18608;53.688;10.748;2023-05-13T02:09:53;37.33;;;22.13;;
32094;SDS011;18608;53.688;10.748;2023-05-13T02:12:23;31.57;;;21.43;;
32094;SDS011;18608;53.688;10.748;2023-05-13T02:14:50;39.83;;;23.60;;
32094;SDS011;18608;53.688;10.748;2023-05-13T02:17:16;33.80;;;21.70;;
32094;SDS011;18608;53.688;10.748;2023-05-13T02:19:42;37.00;;;23.63;;
32094;SDS011;18608;53.688;10.748;2023-05-13T02:22:08;30.03;;;23.20;;
32094;SDS011;18608;53.688;10.748;2023-05-13T02:24:34;38.57;;;23.27;;
32094;SDS011;18608;53.688;10.748;2023-05-13T02:27:03;40.40;;;23.33;;
32094;SDS011;18608;53.688;10.748;2023-05-13T02:29:29;37.57;;;23.37;;
32094;SDS011;18608;53.688;10.748;2023-05-13T02:31:55;38.40;;;23.77;;
32094;SDS011;18608;53.688;10.748;2023-05-13T02:34:22;41.70;;;24.20;;
32094;SDS011;18608;53.688;10.748;2023-05-13T02:36:48;32.50;;;22.10;;
32094;SDS011;18608;53.688;10.748;2023-05-13T02:39:14;38.27;;;21.60;;
32094;SDS011;18608;53.688;10.748;2023-05-13T02:41:40;35.07;;;20.80;;
32094;SDS011;18608;53.688;10.748;2023-05-13T02:44:06;38.57;;;24.30;;
32094;SDS011;18608;53.688;10.748;2023-05-13T02:46:32;38.30;;;23.53;;
32094;SDS011;18608;53.688;10.748;2023-05-13T02:48:58;36.03;;;23.53;;
32094;SDS011;18608;53.688;10.748;2023-05-13T02:51:24;44.17;;;26.17;;
32094;SDS011;18608;53.688;10.748;2023-05-13T02:53:50;36.47;;;25.03;;
32094;SDS011;18608;53.688;10.748;2023-05-13T02:56:16;37.87;;;23.70;;
32094;SDS011;18608;53.688;10.748;2023-05-13T02:58:42;35.30;;;25.03;;
32094;SDS011;18608;53.688;10.748;2023-05-13T03:01:08;33.70;;;25.17;;
32094;SDS011;18608;53.688;10.748;2023-05-13T03:03:34;36.83;;;24.17;;
32094;SDS011;18608;53.688;10.748;2023-05-13T03:06:00;46.53;;;25.27;;
32094;SDS011;18608;53.688;10.748;2023-05-13T03:08:26;52.03;;;25.30;;
32094;SDS011;18608;53.688;10.748;2023-05-13T03:10:52;40.80;;;23.70;;
32094;SDS011;18608;53.688;10.748;2023-05-13T03:13:18;34.80;;;21.57;;
32094;SDS011;18608;53.688;10.748;2023-05-13T03:15:44;33.97;;;23.03;;
32094;SDS011;18608;53.688;10.748;2023-05-13T03:18:10;37.47;;;22.90;;
32094;SDS011;18608;53.688;10.748;2023-05-13T03:20:36;37.90;;;23.10;;
32094;SDS011;18608;53.688;10.748;2023-05-13T03:23:02;37.63;;;24.57;;
32094;SDS011;18608;53.688;10.748;2023-05-13T03:25:28;30.87;;;21.83;;
32094;SDS011;18608;53.688;10.748;2023-05-13T03:27:55;35.07;;;22.20;;
32094;SDS011;18608;53.688;10.748;2023-05-13T03:30:21;35.70;;;22.53;;
32094;SDS011;18608;53.688;10.748;2023-05-13T03:32:47;35.43;;;23.70;;
32094;SDS011;18608;53.688;10.748;2023-05-13T03:35:13;38.73;;;23.20;;
32094;SDS011;18608;53.688;10.748;2023-05-13T03:37:39;44.30;;;23.47;;
32094;SDS011;18608;53.688;10.748;2023-05-13T03:40:05;45.00;;;25.40;;
32094;SDS011;18608;53.688;10.748;2023-05-13T03:42:32;41.47;;;25.23;;
32094;SDS011;18608;53.688;10.748;2023-05-13T03:44:58;37.47;;;24.20;;
32094;SDS011;18608;53.688;10.748;2023-05-13T03:47:24;45.80;;;27.03;;
32094;SDS011;18608;53.688;10.748;2023-05-13T03:49:50;39.63;;;25.80;;
32094;SDS011;18608;53.688;10.748;2023-05-13T03:52:16;41.93;;;26.60;;
32094;SDS011;18608;53.688;10.748;2023-05-13T03:54:42;35.20;;;25.40;;
32094;SDS011;18608;53.688;10.748;2023-05-13T03:57:08;42.07;;;26.37;;
32094;SDS011;18608;53.688;10.748;2023-05-13T03:59:34;47.93;;;28.40;;
32094;SDS011;18608;53.688;10.748;2023-05-13T04:02:00;50.57;;;27.87;;
32094;SDS011;18608;53.688;10.748;2023-05-13T04:04:26;42.10;;;27.10;;
32094;SDS011;18608;53.688;10.748;2023-05-13T04:06:52;46.40;;;28.00;;
32094;SDS011;18608;53.688;10.748;2023-05-13T04:09:18;50.70;;;29.43;;
32094;SDS011;18608;53.688;10.748;2023-05-13T04:11:44;42.60;;;27.00;;
32094;SDS011;18608;53.688;10.748;2023-05-13T04:14:10;45.27;;;27.83;;
32094;SDS011;18608;53.688;10.748;2023-05-13T04:16:36;48.17;;;28.27;;
32094;SDS011;18608;53.688;10.748;2023-05-13T04:19:02;49.33;;;27.13;;
32094;SDS011;18608;53.688;10.748;2023-05-13T04:21:28;52.30;;;28.70;;
32094;SDS011;18608;53.688;10.748;2023-05-13T04:23:55;45.00;;;28.13;;
32094;SDS011;18608;53.688;10.748;2023-05-13T04:26:21;43.47;;;27.73;;
32094;SDS011;18608;53.688;10.748;2023-05-13T04:28:47;45.97;;;26.70;;
32094;SDS011;18608;53.688;10.748;2023-05-13T04:31:13;40.80;;;25.80;;
32094;SDS011;18608;53.688;10.748;2023-05-13T04:33:39;34.27;;;25.23;;
32094;SDS011;18608;53.688;10.748;2023-05-13T04:36:05;38.57;;;23.17;;
32094;SDS011;18608;53.688;10.748;2023-05-13T04:38:31;34.10;;;22.70;;
32094;SDS011;18608;53.688;10.748;2023-05-13T04:40:57;35.43;;;22.50;;
32094;SDS011;18608;53.688;10.748;2023-05-13T04:43:23;27.10;;;17.53;;
32094;SDS011;18608;53.688;10.748;2023-05-13T04:45:49;33.57;;;17.83;;
32094;SDS011;18608;53.688;10.748;2023-05-13T04:48:15;31.53;;;15.67;;
32094;SDS011;18608;53.688;10.748;2023-05-13T04:50:47;28.27;;;17.73;;
32094;SDS011;18608;53.688;10.748;2023-05-13T04:53:14;29.43;;;17.47;;
32094;SDS011;18608;53.688;10.748;2023-05-13T04:55:41;28.83;;;18.20;;
32094;SDS011;18608;53.688;10.748;2023-05-13T04:58:06;30.77;;;16.33;;
32094;SDS011;18608;53.688;10.748;2023-05-13T05:00:32;24.20;;;18.37;;
32094;SDS011;18608;53.688;10.748;2023-05-13T05:02:58;23.20;;;17.30;;
32094;SDS011;18608;53.688;10.748;2023-05-13T05:05:24;22.77;;;15.53;;
32094;SDS011;18608;53.688;10.748;2023-05-13T05:07:50;27.07;;;18.17;;
32094;SDS011;18608;53.688;10.748;2023-05-13T05:10:17;24.50;;;16.60;;
32094;SDS011;18608;53.688;10.748;2023-05-13T05:12:42;26.50;;;16.17;;
32094;SDS011;18608;53.688;10.748;2023-05-13T05:15:09;24.10;;;17.13;;
32094;SDS011;18608;53.688;10.748;2023-05-13T05:17:41;30.27;;;16.77;;
32094;SDS011;18608;53.688;10.748;2023-05-13T05:20:07;23.80;;;15.40;;
32094;SDS011;18608;53.688;10.748;2023-05-13T05:22:34;20.70;;;15.60;;
32094;SDS011;18608;53.688;10.748;2023-05-13T05:25:00;26.27;;;15.77;;
32094;SDS011;18608;53.688;10.748;2023-05-13T05:27:27;31.47;;;15.77;;
32094;SDS011;18608;53.688;10.748;2023-05-13T05:29:53;19.33;;;14.23;;
32094;SDS011;18608;53.688;10.748;2023-05-13T05:32:19;20.53;;;15.30;;
32094;SDS011;18608;53.688;10.748;2023-05-13T05:34:45;19.70;;;12.63;;
32094;SDS011;18608;53.688;10.748;2023-05-13T05:37:11;17.10;;;12.10;;
32094;SDS011;18608;53.688;10.748;2023-05-13T05:39:37;21.73;;;13.90;;
32094;SDS011;18608;53.688;10.748;2023-05-13T05:42:05;24.47;;;11.60;;
32094;SDS011;18608;53.688;10.748;2023-05-13T05:44:31;30.93;;;13.50;;
32094;SDS011;18608;53.688;10.748;2023-05-13T05:46:57;23.93;;;13.20;;
32094;SDS011;18608;53.688;10.748;2023-05-13T05:49:23;17.97;;;13.23;;
32094;SDS011;18608;53.688;10.748;2023-05-13T05:51:49;18.40;;;13.00;;
32094;SDS011;18608;53.688;10.748;2023-05-13T05:54:15;14.80;;;11.73;;
32094;SDS011;18608;53.688;10.748;2023-05-13T05:56:41;19.33;;;11.57;;
32094;SDS011;18608;53.688;10.748;2023-05-13T05:59:07;14.00;;;11.33;;
32094;SDS011;18608;53.688;10.748;2023-05-13T06:01:33;27.27;;;12.30;;
32094;SDS011;18608;53.688;10.748;2023-05-13T06:04:01;15.53;;;11.80;;
32094;SDS011;18608;53.688;10.748;2023-05-13T06:06:27;16.10;;;10.63;;
32094;SDS011;18608;53.688;10.748;2023-05-13T06:08:53;19.13;;;11.27;;
32094;SDS011;18608;53.688;10.748;2023-05-13T06:11:19;17.83;;;12.30;;
32094;SDS011;18608;53.688;10.748;2023-05-13T06:13:45;15.43;;;11.57;;
32094;SDS011;18608;53.688;10.748;2023-05-13T06:16:11;14.30;;;10.60;;
32094;SDS011;18608;53.688;10.748;2023-05-13T06:18:37;14.63;;;10.73;;
32094;SDS011;18608;53.688;10.748;2023-05-13T06:21:03;11.70;;;8.63;;
32094;SDS011;18608;53.688;10.748;2023-05-13T06:23:29;11.60;;;9.63;;
32094;SDS011;18608;53.688;10.748;2023-05-13T06:25:55;16.97;;;9.97;;
32094;SDS011;18608;53.688;10.748;2023-05-13T06:28:23;13.73;;;10.10;;
32094;SDS011;18608;53.688;10.748;2023-05-13T06:30:49;13.57;;;9.90;;
32094;SDS011;18608;53.688;10.748;2023-05-13T06:33:15;12.07;;;9.30;;
32094;SDS011;18608;53.688;10.748;2023-05-13T06:35:41;12.17;;;8.80;;
32094;SDS011;18608;53.688;10.748;2023-05-13T06:38:12;15.10;;;8.80;;
32094;SDS011;18608;53.688;10.748;2023-05-13T06:40:38;12.20;;;9.33;;
32094;SDS011;18608;53.688;10.748;2023-05-13T06:43:04;9.70;;;8.50;;
32094;SDS011;18608;53.688;10.748;2023-05-13T06:45:30;12.40;;;8.70;;
32094;SDS011;18608;53.688;10.748;2023-05-13T06:47:56;11.40;;;8.33;;
32094;SDS011;18608;53.688;10.748;2023-05-13T06:50:22;10.10;;;7.13;;
32094;SDS011;18608;53.688;10.748;2023-05-13T06:52:48;22.10;;;8.63;;
32094;SDS011;18608;53.688;10.748;2023-05-13T06:55:14;8.00;;;6.50;;
32094;SDS011;18608;53.688;10.748;2023-05-13T06:57:42;10.50;;;7.20;;
32094;SDS011;18608;53.688;10.748;2023-05-13T07:00:12;16.07;;;7.83;;
32094;SDS011;18608;53.688;10.748;2023-05-13T07:02:38;9.23;;;6.90;;
32094;SDS011;18608;53.688;10.748;2023-05-13T07:05:05;10.10;;;7.20;;
32094;SDS011;18608;53.688;10.748;2023-05-13T07:07:31;20.40;;;7.97;;
32094;SDS011;18608;53.688;10.748;2023-05-13T07:09:57;9.07;;;6.43;;
32094;SDS011;18608;53.688;10.748;2023-05-13T07:12:23;20.40;;;8.30;;
32094;SDS011;18608;53.688;10.748;2023-05-13T07:14:49;11.73;;;7.43;;
32094;SDS011;18608;53.688;10.748;2023-05-13T07:17:15;9.90;;;6.93;;
32094;SDS011;18608;53.688;10.748;2023-05-13T07:19:41;9.27;;;6.90;;
32094;SDS011;18608;53.688;10.748;2023-05-13T07:22:07;11.73;;;5.83;;
32094;SDS011;18608;53.688;10.748;2023-05-13T07:24:33;8.27;;;6.07;;
32094;SDS011;18608;53.688;10.748;2023-05-13T07:26:59;8.73;;;6.83;;
32094;SDS011;18608;53.688;10.748;2023-05-13T07:29:29;11.27;;;6.53;;
32094;SDS011;18608;53.688;10.748;2023-05-13T07:31:56;7.20;;;6.50;;
32094;SDS011;18608;53.688;10.748;2023-05-13T07:34:22;10.80;;;7.43;;
32094;SDS011;18608;53.688;10.748;2023-05-13T07:36:48;10.17;;;6.30;;
32094;SDS011;18608;53.688;10.748;2023-05-13T07:39:14;11.37;;;5.97;;
32094;SDS011;18608;53.688;10.748;2023-05-13T07:41:40;7.43;;;6.50;;
32094;SDS011;18608;53.688;10.748;2023-05-13T07:44:06;11.77;;;6.40;;
32094;SDS011;18608;53.688;10.748;2023-05-13T07:46:36;7.77;;;6.80;;
32094;SDS011;18608;53.688;10.748;2023-05-13T07:49:02;7.30;;;5.63;;
32094;SDS011;18608;53.688;10.748;2023-05-13T07:51:30;9.27;;;6.37;;
32094;SDS011;18608;53.688;10.748;2023-05-13T07:53:56;7.00;;;6.10;;
32094;SDS011;18608;53.688;10.748;2023-05-13T07:56:22;7.57;;;5.83;;
32094;SDS011;18608;53.688;10.748;2023-05-13T07:58:48;19.73;;;6.50;;
32094;SDS011;18608;53.688;10.748;2023-05-13T08:01:14;8.80;;;7.70;;
32094;SDS011;18608;53.688;10.748;2023-05-13T08:03:41;7.87;;;6.33;;
32094;SDS011;18608;53.688;10.748;2023-05-13T08:06:06;6.83;;;6.13;;
32094;SDS011;18608;53.688;10.748;2023-05-13T08:08:33;6.70;;;5.40;;
32094;SDS011;18608;53.688;10.748;2023-05-13T08:10:58;9.97;;;7.17;;
32094;SDS011;18608;53.688;10.748;2023-05-13T08:13:24;9.33;;;5.80;;
32094;SDS011;18608;53.688;10.748;2023-05-13T08:15:51;8.43;;;6.50;;
32094;SDS011;18608;53.688;10.748;2023-05-13T08:18:17;8.13;;;6.30;;
32094;SDS011;18608;53.688;10.748;2023-05-13T08:20:43;8.13;;;6.23;;
32094;SDS011;18608;53.688;10.748;2023-05-13T08:23:10;6.80;;;6.07;;
32094;SDS011;18608;53.688;10.748;2023-05-13T08:25:36;8.97;;;6.13;;
32094;SDS011;18608;53.688;10.748;2023-05-13T08:28:02;7.67;;;5.20;;
32094;SDS011;18608;53.688;10.748;2023-05-13T08:30:28;5.33;;;4.83;;
32094;SDS011;18608;53.688;10.748;2023-05-13T08:32:54;9.03;;;5.57;;
32094;SDS011;18608;53.688;10.748;2023-05-13T08:35:20;7.57;;;5.10;;
32094;SDS011;18608;53.688;10.748;2023-05-13T08:37:46;9.53;;;5.73;;
32094;SDS011;18608;53.688;10.748;2023-05-13T08:40:12;6.00;;;5.40;;
32094;SDS011;18608;53.688;10.748;2023-05-13T08:42:39;8.83;;;5.47;;
32094;SDS011;18608;53.688;10.748;2023-05-13T08:45:06;7.43;;;5.13;;
32094;SDS011;18608;53.688;10.748;2023-05-13T08:49:59;4.97;;;4.57;;
32094;SDS011;18608;53.688;10.748;2023-05-13T08:52:25;5.27;;;4.73;;
32094;SDS011;18608;53.688;10.748;2023-05-13T08:54:51;6.87;;;5.23;;
32094;SDS011;18608;53.688;10.748;2023-05-13T08:57:18;5.73;;;5.13;;
32094;SDS011;18608;53.688;10.748;2023-05-13T08:59:44;7.10;;;6.07;;
32094;SDS011;18608;53.688;10.748;2023-05-13T09:02:10;12.63;;;5.27;;
32094;SDS011;18608;53.688;10.748;2023-05-13T09:04:37;5.57;;;5.03;;
32094;SDS011;18608;53.688;10.748;2023-05-13T09:07:06;21.97;;;5.83;;
32094;SDS011;18608;53.688;10.748;2023-05-13T09:09:32;7.77;;;4.63;;
32094;SDS011;18608;53.688;10.748;2023-05-13T09:11:58;6.57;;;4.90;;
32094;SDS011;18608;53.688;10.748;2023-05-13T09:14:31;11.50;;;5.13;;
32094;SDS011;18608;53.688;10.748;2023-05-13T09:16:57;7.60;;;4.60;;
32094;SDS011;18608;53.688;10.748;2023-05-13T09:19:23;5.73;;;5.13;;
32094;SDS011;18608;53.688;10.748;2023-05-13T09:21:50;6.93;;;5.53;;
32094;SDS011;18608;53.688;10.748;2023-05-13T09:24:17;8.00;;;5.60;;
32094;SDS011;18608;53.688;10.748;2023-05-13T09:26:45;6.93;;;4.80;;
32094;SDS011;18608;53.688;10.748;2023-05-13T09:29:19;6.07;;;4.60;;
32094;SDS011;18608;53.688;10.748;2023-05-13T09:31:47;8.33;;;4.47;;
32094;SDS011;18608;53.688;10.748;2023-05-13T09:34:31;5.57;;;4.03;;
32094;SDS011;18608;53.688;10.748;2023-05-13T09:36:58;6.17;;;4.30;;
32094;SDS011;18608;53.688;10.748;2023-05-13T09:39:31;9.33;;;4.70;;
32094;SDS011;18608;53.688;10.748;2023-05-13T09:42:25;6.30;;;4.67;;
32094;SDS011;18608;53.688;10.748;2023-05-13T09:44:50;7.67;;;5.10;;
32094;SDS011;18608;53.688;10.748;2023-05-13T09:47:17;5.13;;;4.80;;
32094;SDS011;18608;53.688;10.748;2023-05-13T09:49:43;7.00;;;5.47;;
32094;SDS011;18608;53.688;10.748;2023-05-13T09:52:16;6.97;;;4.20;;
32094;SDS011;18608;53.688;10.748;2023-05-13T09:54:43;4.03;;;3.60;;
32094;SDS011;18608;53.688;10.748;2023-05-13T09:57:11;3.83;;;3.53;;
32094;SDS011;18608;53.688;10.748;2023-05-13T09:59:37;11.20;;;3.90;;
32094;SDS011;18608;53.688;10.748;2023-05-13T10:02:04;4.33;;;4.00;;
32094;SDS011;18608;53.688;10.748;2023-05-13T10:04:31;6.40;;;4.03;;
32094;SDS011;18608;53.688;10.748;2023-05-13T10:06:57;4.47;;;3.80;;
32094;SDS011;18608;53.688;10.748;2023-05-13T10:09:26;7.03;;;3.90;;
32094;SDS011;18608;53.688;10.748;2023-05-13T10:11:54;8.07;;;3.70;;
32094;SDS011;18608;53.688;10.748;2023-05-13T10:14:21;6.73;;;4.13;;
32094;SDS011;18608;53.688;10.748;2023-05-13T10:16:47;4.23;;;3.83;;
32094;SDS011;18608;53.688;10.748;2023-05-13T10:19:13;4.33;;;3.47;;
32094;SDS011;18608;53.688;10.748;2023-05-13T10:21:39;4.70;;;3.83;;
32094;SDS011;18608;53.688;10.748;2023-05-13T10:24:06;4.43;;;3.50;;
32094;SDS011;18608;53.688;10.748;2023-05-13T10:26:32;11.70;;;3.83;;
32094;SDS011;18608;53.688;10.748;2023-05-13T10:28:59;4.77;;;3.63;;
32094;SDS011;18608;53.688;10.748;2023-05-13T10:31:25;5.10;;;3.83;;
32094;SDS011;18608;53.688;10.748;2023-05-13T10:33:52;5.63;;;3.67;;
32094;SDS011;18608;53.688;10.748;2023-05-13T10:36:22;9.03;;;4.03;;
32094;SDS011;18608;53.688;10.748;2023-05-13T10:42:07;7.03;;;4.43;;
32094;SDS011;18608;53.688;10.748;2023-05-13T10:44:41;3.80;;;3.47;;
32094;SDS011;18608;53.688;10.748;2023-05-13T10:47:08;3.80;;;3.50;;
32094;SDS011;18608;53.688;10.748;2023-05-13T10:49:35;4.13;;;3.83;;
32094;SDS011;18608;53.688;10.748;2023-05-13T10:52:05;5.93;;;3.57;;
32094;SDS011;18608;53.688;10.748;2023-05-13T10:54:36;4.57;;;3.73;;
32094;SDS011;18608;53.688;10.748;2023-05-13T10:57:03;7.40;;;4.30;;
32094;SDS011;18608;53.688;10.748;2023-05-13T10:59:29;11.80;;;4.37;;
32094;SDS011;18608;53.688;10.748;2023-05-13T11:01:55;6.23;;;3.50;;
32094;SDS011;18608;53.688;10.748;2023-05-13T11:04:21;8.80;;;3.43;;
32094;SDS011;18608;53.688;10.748;2023-05-13T11:06:49;4.60;;;3.57;;
32094;SDS011;18608;53.688;10.748;2023-05-13T11:11:51;3.50;;;3.20;;
32094;SDS011;18608;53.688;10.748;2023-05-13T11:16:53;9.33;;;3.20;;
32094;SDS011;18608;53.688;10.748;2023-05-13T11:19:34;6.03;;;3.87;;
32094;SDS011;18608;53.688;10.748;2023-05-13T11:22:07;5.63;;;3.77;;
32094;SDS011;18608;53.688;10.748;2023-05-13T11:24:34;4.60;;;3.47;;
32094;SDS011;18608;53.688;10.748;2023-05-13T11:27:11;3.73;;;3.30;;
32094;SDS011;18608;53.688;10.748;2023-05-13T11:29:40;4.73;;;3.97;;
32094;SDS011;18608;53.688;10.748;2023-05-13T11:35:27;3.40;;;3.10;;
32094;SDS011;18608;53.688;10.748;2023-05-13T11:37:54;6.83;;;3.47;;
32094;SDS011;18608;53.688;10.748;2023-05-13T11:42:47;9.87;;;3.63;;
32094;SDS011;18608;53.688;10.748;2023-05-13T11:45:14;6.80;;;3.80;;
32094;SDS011;18608;53.688;10.748;2023-05-13T11:47:41;3.27;;;3.03;;
32094;SDS011;18608;53.688;10.748;2023-05-13T11:50:21;4.23;;;3.10;;
32094;SDS011;18608;53.688;10.748;2023-05-13T11:52:50;3.67;;;3.47;;
32094;SDS011;18608;53.688;10.748;2023-05-13T11:55:24;5.20;;;3.40;;
32094;SDS011;18608;53.688;10.748;2023-05-13T11:57:54;4.63;;;4.00;;
32094;SDS011;18608;53.688;10.748;2023-05-13T12:00:26;4.40;;;2.97;;
32094;SDS011;18608;53.688;10.748;2023-05-13T12:02:57;3.30;;;3.03;;
32094;SDS011;18608;53.688;10.748;2023-05-13T12:05:23;5.70;;;3.63;;
32094;SDS011;18608;53.688;10.748;2023-05-13T12:07:49;6.90;;;3.90;;
32094;SDS011;18608;53.688;10.748;2023-05-13T12:10:16;5.10;;;3.60;;
32094;SDS011;18608;53.688;10.748;2023-05-13T12:12:43;6.27;;;2.60;;
32094;SDS011;18608;53.688;10.748;2023-05-13T12:15:11;3.43;;;2.97;;
32094;SDS011;18608;53.688;10.748;2023-05-13T12:17:40;3.70;;;3.40;;
32094;SDS011;18608;53.688;10.748;2023-05-13T12:20:13;6.90;;;3.10;;
32094;SDS011;18608;53.688;10.748;2023-05-13T12:28:16;4.47;;;3.40;;
32094;SDS011;18608;53.688;10.748;2023-05-13T12:30:53;2.93;;;2.73;;
32094;SDS011;18608;53.688;10.748;2023-05-13T12:33:23;3.13;;;2.70;;
32094;SDS011;18608;53.688;10.748;2023-05-13T12:35:51;2.80;;;2.63;;
32094;SDS011;18608;53.688;10.748;2023-05-13T12:38:23;6.33;;;3.43;;
32094;SDS011;18608;53.688;10.748;2023-05-13T12:40:49;3.70;;;3.00;;
32094;SDS011;18608;53.688;10.748;2023-05-13T12:43:17;4.00;;;3.63;;
32094;SDS011;18608;53.688;10.748;2023-05-13T12:45:43;8.57;;;2.57;;
32094;SDS011;18608;53.688;10.748;2023-05-13T12:48:10;3.50;;;3.20;;
32094;SDS011;18608;53.688;10.748;2023-05-13T12:50:36;5.03;;;3.30;;
32094;SDS011;18608;53.688;10.748;2023-05-13T12:53:02;5.70;;;3.60;;
32094;SDS011;18608;53.688;10.748;2023-05-13T12:55:28;5.83;;;2.80;;
32094;SDS011;18608;53.688;10.748;2023-05-13T12:57:55;3.33;;;3.03;;
32094;SDS011;18608;53.688;10.748;2023-05-13T13:00:26;4.17;;;2.80;;
32094;SDS011;18608;53.688;10.748;2023-05-13T13:02:52;7.93;;;3.13;;
32094;SDS011;18608;53.688;10.748;2023-05-13T13:05:19;4.53;;;2.60;;
32094;SDS011;18608;53.688;10.748;2023-05-13T13:07:45;4.13;;;2.73;;
32094;SDS011;18608;53.688;10.748;2023-05-13T13:10:11;4.20;;;3.20;;
32094;SDS011;18608;53.688;10.748;2023-05-13T13:12:37;2.73;;;2.53;;
32094;SDS011;18608;53.688;10.748;2023-05-13T13:15:04;3.93;;;3.00;;
32094;SDS011;18608;53.688;10.748;2023-05-13T13:17:31;5.60;;;3.53;;
32094;SDS011;18608;53.688;10.748;2023-05-13T13:19:57;5.57;;;3.63;;
32094;SDS011;18608;53.688;10.748;2023-05-13T13:22:24;5.13;;;3.30;;
32094;SDS011;18608;53.688;10.748;2023-05-13T13:24:51;3.30;;;3.10;;
32094;SDS011;18608;53.688;10.748;2023-05-13T13:27:17;4.30;;;2.60;;
32094;SDS011;18608;53.688;10.748;2023-05-13T13:29:43;2.80;;;2.60;;
32094;SDS011;18608;53.688;10.748;2023-05-13T13:32:09;10.30;;;3.60;;
32094;SDS011;18608;53.688;10.748;2023-05-13T13:34:35;3.00;;;2.80;;
32094;SDS011;18608;53.688;10.748;2023-05-13T13:37:01;6.70;;;2.67;;
32094;SDS011;18608;53.688;10.748;2023-05-13T13:39:28;10.70;;;3.33;;
32094;SDS011;18608;53.688;10.748;2023-05-13T13:41:54;3.37;;;3.07;;
32094;SDS011;18608;53.688;10.748;2023-05-13T13:44:21;3.20;;;2.83;;
32094;SDS011;18608;53.688;10.748;2023-05-13T13:46:47;4.30;;;3.40;;
32094;SDS011;18608;53.688;10.748;2023-05-13T13:49:13;4.07;;;3.37;;
32094;SDS011;18608;53.688;10.748;2023-05-13T13:51:39;3.13;;;2.93;;
32094;SDS011;18608;53.688;10.748;2023-05-13T13:54:06;4.83;;;3.03;;
32094;SDS011;18608;53.688;10.748;2023-05-13T13:56:32;3.70;;;2.83;;
32094;SDS011;18608;53.688;10.748;2023-05-13T13:59:00;3.43;;;3.03;;
32094;SDS011;18608;53.688;10.748;2023-05-13T14:01:26;2.67;;;2.47;;
32094;SDS011;18608;53.688;10.748;2023-05-13T14:04:08;3.20;;;3.00;;
32094;SDS011;18608;53.688;10.748;2023-05-13T14:06:37;5.60;;;4.37;;
32094;SDS011;18608;53.688;10.748;2023-05-13T14:09:04;4.57;;;3.30;;
32094;SDS011;18608;53.688;10.748;2023-05-13T14:11:30;3.73;;;3.43;;
32094;SDS011;18608;53.688;10.748;2023-05-13T14:13:57;5.53;;;3.30;;
32094;SDS011;18608;53.688;10.748;2023-05-13T14:16:23;4.67;;;3.17;;
32094;SDS011;18608;53.688;10.748;2023-05-13T14:18:49;5.40;;;3.00;;
32094;SDS011;18608;53.688;10.748;2023-05-13T14:21:15;3.83;;;3.10;;
32094;SDS011;18608;53.688;10.748;2023-05-13T14:23:41;8.43;;;2.83;;
32094;SDS011;18608;53.688;10.748;2023-05-13T14:26:08;2.93;;;2.73;;
32094;SDS011;18608;53.688;10.748;2023-05-13T14:28:35;2.90;;;2.70;;
32094;SDS011;18608;53.688;10.748;2023-05-13T14:31:01;3.50;;;3.20;;
32094;SDS011;18608;53.688;10.748;2023-05-13T14:33:29;3.10;;;2.90;;
32094;SDS011;18608;53.688;10.748;2023-05-13T14:35:55;6.30;;;3.13;;
32094;SDS011;18608;53.688;10.748;2023-05-13T14:38:24;3.07;;;2.87;;
32094;SDS011;18608;53.688;10.748;2023-05-13T14:40:55;6.00;;;3.57;;
32094;SDS011;18608;53.688;10.748;2023-05-13T14:43:21;4.43;;;3.17;;
32094;SDS011;18608;53.688;10.748;2023-05-13T14:45:48;2.60;;;2.47;;